^^
Saratoga-Weather Station Historical Data
Daily Summary for June 30, 2022 Units:  Both    English   Metric
Daily Weekly Monthly Yearly Custom
  High: Low: Average:
Temperature: 82.8 °F /  28.2 °C 55.8 °F /  13.2 °C 66 °F /  18.9 °C
Dew Point: 64 °F /  17.8 °C 53.1 °F /  11.7 °C 57.2 °F /  14 °C
Humidity: 92% 47% 75%
Wind Speed: 21mph /  33.8km/h - 2.8mph /  4.5km/h
Wind Gust: 29mph /  46.7km/h - -
Wind- - West
Pressure: 30 in /  1015.9 hPa 29.8 in /  1007.8 hPa -
Precipitation: 0.08 in /  2.0 mm    
Historical Graphs
 
 
Tabular Data for June 30, 2022
Time Temperature Dew Point Pressure Wind Wind Speed Wind Gust Humidity Rainfall Rate (Hourly) solar
00:02 66.4 °F /  19.1 °C 56.7 °F /  13.7 °C 29.9in /  1010.8hPa Calm     71% 0in /  0.0mm 0 W/m2
00:07 66 °F /  18.9 °C 56.3 °F /  13.5 °C 29.9in /  1010.8hPa Calm     71% 0in /  0.0mm 0 W/m2
00:12 65.8 °F /  18.8 °C 56.5 °F /  13.6 °C 29.9in /  1010.8hPa Calm     72% 0in /  0.0mm 0 W/m2
00:17 65.8 °F /  18.8 °C 56.5 °F /  13.6 °C 29.9in /  1010.8hPa Calm     72% 0in /  0.0mm 0 W/m2
00:22 65.7 °F /  18.7 °C 56.3 °F /  13.5 °C 29.9in /  1010.8hPa Calm     72% 0in /  0.0mm 0 W/m2
00:27 65.5 °F /  18.6 °C 55.8 °F /  13.2 °C 29.9in /  1010.8hPa Calm     71% 0in /  0.0mm 0 W/m2
00:32 65.5 °F /  18.6 °C 56.3 °F /  13.5 °C 29.9in /  1010.8hPa Calm     72% 0in /  0.0mm 0 W/m2
00:37 65.1 °F /  18.4 °C 55.9 °F /  13.3 °C 29.9in /  1010.8hPa Calm     72% 0in /  0.0mm 0 W/m2
00:42 65.1 °F /  18.4 °C 56.3 °F /  13.5 °C 29.9in /  1010.8hPa Calm     73% 0in /  0.0mm 0 W/m2
00:47 64.9 °F /  18.3 °C 56.1 °F /  13.4 °C 29.9in /  1010.8hPa Calm     73% 0in /  0.0mm 0 W/m2
00:52 64.9 °F /  18.3 °C 56.1 °F /  13.4 °C 29.9in /  1010.8hPa Calm     73% 0in /  0.0mm 0 W/m2
00:57 64.9 °F /  18.3 °C 56.1 °F /  13.4 °C 29.9in /  1010.8hPa Calm     73% 0in /  0.0mm 0 W/m2
01:02 64.8 °F /  18.2 °C 55.9 °F /  13.3 °C 29.9in /  1010.8hPa Calm     73% 0in /  0.0mm 0 W/m2
01:07 64.6 °F /  18.1 °C 55.8 °F /  13.2 °C 29.9in /  1010.8hPa Calm     73% 0in /  0.0mm 0 W/m2
01:12 64.6 °F /  18.1 °C 56.1 °F /  13.4 °C 29.9in /  1010.8hPa Calm     74% 0in /  0.0mm 0 W/m2
01:17 64.4 °F /  18 °C 55.9 °F /  13.3 °C 29.8in /  1010.5hPa Calm     74% 0in /  0.0mm 0 W/m2
01:22 64.2 °F /  17.9 °C 56.1 °F /  13.4 °C 29.8in /  1010.5hPa Calm     75% 0in /  0.0mm 0 W/m2
01:27 64 °F /  17.8 °C 55.9 °F /  13.3 °C 29.8in /  1010.5hPa Calm     75% 0in /  0.0mm 0 W/m2
01:32 63.9 °F /  17.7 °C 56.1 °F /  13.4 °C 29.8in /  1010.5hPa Calm     76% 0in /  0.0mm 0 W/m2
01:37 63.7 °F /  17.6 °C 55.9 °F /  13.3 °C 29.8in /  1010.5hPa Calm     76% 0in /  0.0mm 0 W/m2
01:42 63.3 °F /  17.4 °C 55.6 °F /  13.1 °C 29.8in /  1010.5hPa Calm     76% 0in /  0.0mm 0 W/m2
01:47 63.1 °F /  17.3 °C 55.8 °F /  13.2 °C 29.8in /  1010.5hPa Calm     77% 0in /  0.0mm 0 W/m2
01:52 63 °F /  17.2 °C 55.6 °F /  13.1 °C 29.8in /  1010.5hPa Calm     77% 0in /  0.0mm 0 W/m2
01:57 62.8 °F /  17.1 °C 55.4 °F /  13 °C 29.8in /  1010.5hPa Calm     77% 0in /  0.0mm 0 W/m2
02:02 62.8 °F /  17.1 °C 55.4 °F /  13 °C 29.8in /  1010.5hPa Calm     77% 0in /  0.0mm 0 W/m2
02:07 62.8 °F /  17.1 °C 55.8 °F /  13.2 °C 29.8in /  1010.5hPa Calm     78% 0in /  0.0mm 0 W/m2
02:12 62.8 °F /  17.1 °C 55.8 °F /  13.2 °C 29.8in /  1010.5hPa Calm     78% 0in /  0.0mm 0 W/m2
02:17 62.6 °F /  17 °C 55.6 °F /  13.1 °C 29.8in /  1010.5hPa Calm     78% 0in /  0.0mm 0 W/m2
02:22 62.4 °F /  16.9 °C 55.4 °F /  13 °C 29.8in /  1010.5hPa Calm     78% 0in /  0.0mm 0 W/m2
02:27 62.2 °F /  16.8 °C 55.6 °F /  13.1 °C 29.8in /  1010.5hPa Calm     79% 0in /  0.0mm 0 W/m2
02:32 62.2 °F /  16.8 °C 55.6 °F /  13.1 °C 29.8in /  1010.5hPa Calm     79% 0in /  0.0mm 0 W/m2
02:37 62.1 °F /  16.7 °C 55.8 °F /  13.2 °C 29.8in /  1010.5hPa Calm     80% 0in /  0.0mm 0 W/m2
02:42 62.1 °F /  16.7 °C 55.8 °F /  13.2 °C 29.8in /  1010.5hPa Calm     80% 0in /  0.0mm 0 W/m2
02:47 62.1 °F /  16.7 °C 55.8 °F /  13.2 °C 29.8in /  1010.2hPa Calm     80% 0in /  0.0mm 0 W/m2
02:52 61.9 °F /  16.6 °C 55.6 °F /  13.1 °C 29.8in /  1010.5hPa Calm     80% 0in /  0.0mm 0 W/m2
02:57 61.9 °F /  16.6 °C 55.9 °F /  13.3 °C 29.8in /  1010.5hPa Calm     81% 0in /  0.0mm 0 W/m2
03:02 61.9 °F /  16.6 °C 55.9 °F /  13.3 °C 29.8in /  1010.5hPa Calm     81% 0in /  0.0mm 0 W/m2
03:07 61.7 °F /  16.5 °C 55.8 °F /  13.2 °C 29.8in /  1010.5hPa Calm     81% 0in /  0.0mm 0 W/m2
03:12 61.5 °F /  16.4 °C 55.6 °F /  13.1 °C 29.8in /  1010.5hPa Calm     81% 0in /  0.0mm 0 W/m2
03:17 61.5 °F /  16.4 °C 55.6 °F /  13.1 °C 29.8in /  1010.2hPa Calm     81% 0in /  0.0mm 0 W/m2
03:22 61.3 °F /  16.3 °C 55.8 °F /  13.2 °C 29.8in /  1010.5hPa Calm     82% 0in /  0.0mm 0 W/m2
03:28 61.3 °F /  16.3 °C 55.8 °F /  13.2 °C 29.8in /  1010.5hPa Calm     82% 0in /  0.0mm 0 W/m2
03:33 61.2 °F /  16.2 °C 55.6 °F /  13.1 °C 29.8in /  1010.5hPa Calm     82% 0in /  0.0mm 0 W/m2
03:38 61 °F /  16.1 °C 55.4 °F /  13 °C 29.8in /  1010.5hPa Calm     82% 0in /  0.0mm 0 W/m2
03:43 61 °F /  16.1 °C 55.8 °F /  13.2 °C 29.8in /  1010.5hPa Calm     83% 0in /  0.0mm 0 W/m2
03:48 60.6 °F /  15.9 °C 55.4 °F /  13 °C 29.8in /  1010.5hPa Calm     83% 0in /  0.0mm 0 W/m2
03:53 60.6 °F /  15.9 °C 55.4 °F /  13 °C 29.8in /  1010.5hPa Calm     83% 0in /  0.0mm 0 W/m2
03:58 60.4 °F /  15.8 °C 55.2 °F /  12.9 °C 29.8in /  1010.2hPa Calm     83% 0in /  0.0mm 0 W/m2
04:03 60.3 °F /  15.7 °C 55.4 °F /  13 °C 29.8in /  1010.5hPa Calm     84% 0in /  0.0mm 0 W/m2
04:08 60.1 °F /  15.6 °C 55.2 °F /  12.9 °C 29.8in /  1010.2hPa Calm     84% 0in /  0.0mm 0 W/m2
04:13 60.1 °F /  15.6 °C 55.2 °F /  12.9 °C 29.8in /  1010.2hPa Calm     84% 0in /  0.0mm 0 W/m2
04:18 59.7 °F /  15.4 °C 55.2 °F /  12.9 °C 29.8in /  1010.2hPa Calm     85% 0in /  0.0mm 0 W/m2
04:23 59.7 °F /  15.4 °C 55.2 °F /  12.9 °C 29.8in /  1010.2hPa Calm     85% 0in /  0.0mm 0 W/m2
04:28 59.7 °F /  15.4 °C 55.2 °F /  12.9 °C 29.8in /  1010.2hPa Calm     85% 0in /  0.0mm 0 W/m2
04:33 59.5 °F /  15.3 °C 55 °F /  12.8 °C 29.8in /  1010.5hPa Calm     85% 0in /  0.0mm 0 W/m2
04:38 59.5 °F /  15.3 °C 55 °F /  12.8 °C 29.8in /  1010.5hPa Calm     85% 0in /  0.0mm 0 W/m2
04:43 59.4 °F /  15.2 °C 54.9 °F /  12.7 °C 29.8in /  1010.5hPa Calm     85% 0in /  0.0mm 0 W/m2
04:48 59.4 °F /  15.2 °C 54.9 °F /  12.7 °C 29.8in /  1010.2hPa Calm     85% 0in /  0.0mm 0 W/m2
04:53 59.2 °F /  15.1 °C 54.7 °F /  12.6 °C 29.8in /  1010.2hPa Calm     85% 0in /  0.0mm 0 W/m2
04:58 59.2 °F /  15.1 °C 54.7 °F /  12.6 °C 29.8in /  1010.2hPa Calm     85% 0in /  0.0mm 0 W/m2
05:03 59.2 °F /  15.1 °C 55 °F /  12.8 °C 29.8in /  1010.5hPa Calm     86% 0in /  0.0mm 0 W/m2
05:08 59.2 °F /  15.1 °C 55 °F /  12.8 °C 29.8in /  1010.2hPa Calm     86% 0in /  0.0mm 0 W/m2
05:13 59 °F /  15 °C 54.9 °F /  12.7 °C 29.8in /  1010.2hPa Calm     86% 0in /  0.0mm 0 W/m2
05:18 58.8 °F /  14.9 °C 54.7 °F /  12.6 °C 29.8in /  1010.2hPa Calm     86% 0in /  0.0mm 0 W/m2
05:23 58.8 °F /  14.9 °C 54.7 °F /  12.6 °C 29.8in /  1010.2hPa Calm     86% 0in /  0.0mm 0 W/m2
05:28 58.6 °F /  14.8 °C 54.9 °F /  12.7 °C 29.8in /  1010.2hPa Calm     87% 0in /  0.0mm 0 W/m2
05:33 58.6 °F /  14.8 °C 54.9 °F /  12.7 °C 29.8in /  1010.2hPa Calm     87% 0in /  0.0mm 0 W/m2
05:38 58.5 °F /  14.7 °C 54.7 °F /  12.6 °C 29.8in /  1010.2hPa Calm     87% 0in /  0.0mm 5 W/m2
05:43 58.5 °F /  14.7 °C 54.7 °F /  12.6 °C 29.8in /  1010.2hPa Calm     87% 0in /  0.0mm 7 W/m2
05:48 58.3 °F /  14.6 °C 54.5 °F /  12.5 °C 29.8in /  1010.2hPa Calm     87% 0in /  0.0mm 9 W/m2
05:53 58.3 °F /  14.6 °C 54.5 °F /  12.5 °C 29.8in /  1010.2hPa Calm     87% 0in /  0.0mm 11 W/m2
05:58 58.3 °F /  14.6 °C 54.5 °F /  12.5 °C 29.8in /  1010.2hPa Calm     87% 0in /  0.0mm 12 W/m2
06:03 58.1 °F /  14.5 °C 54.5 °F /  12.5 °C 29.8in /  1010.2hPa Calm     88% 0in /  0.0mm 14 W/m2
06:08 58.1 °F /  14.5 °C 54.5 °F /  12.5 °C 29.8in /  1010.2hPa Calm     88% 0in /  0.0mm 16 W/m2
06:13 58.1 °F /  14.5 °C 54.5 °F /  12.5 °C 29.8in /  1010.2hPa Calm     88% 0in /  0.0mm 18 W/m2
06:18 58.1 °F /  14.5 °C 54.5 °F /  12.5 °C 29.8in /  1009.8hPa Calm     88% 0in /  0.0mm 21 W/m2
06:23 58.3 °F /  14.6 °C 54.7 °F /  12.6 °C 29.8in /  1009.8hPa Calm     88% 0in /  0.0mm 21 W/m2
06:28 58.3 °F /  14.6 °C 54.7 °F /  12.6 °C 29.8in /  1009.8hPa Calm     88% 0in /  0.0mm 23 W/m2
06:33 58.3 °F /  14.6 °C 54.7 °F /  12.6 °C 29.8in /  1009.8hPa Calm     88% 0in /  0.0mm 25 W/m2
06:38 58.5 °F /  14.7 °C 54.9 °F /  12.7 °C 29.8in /  1009.8hPa Calm     88% 0in /  0.0mm 26 W/m2
06:43 58.6 °F /  14.8 °C 55 °F /  12.8 °C 29.8in /  1009.8hPa Calm     88% 0in /  0.0mm 28 W/m2
06:48 58.8 °F /  14.9 °C 55 °F /  12.8 °C 29.8in /  1009.8hPa Calm     87% 0in /  0.0mm 28 W/m2
06:53 59.4 °F /  15.2 °C 55.2 °F /  12.9 °C 29.8in /  1009.8hPa Calm     86% 0in /  0.0mm 32 W/m2
06:58 59.7 °F /  15.4 °C 55.6 °F /  13.1 °C 29.8in /  1010.2hPa Calm     86% 0in /  0.0mm 33 W/m2
07:03 60.3 °F /  15.7 °C 55.8 °F /  13.2 °C 29.8in /  1009.8hPa Calm     85% 0in /  0.0mm 37 W/m2
07:08 60.8 °F /  16 °C 55.9 °F /  13.3 °C 29.8in /  1009.8hPa Calm     84% 0in /  0.0mm 40 W/m2
07:13 61.2 °F /  16.2 °C 56.3 °F /  13.5 °C 29.8in /  1009.8hPa Calm     84% 0in /  0.0mm 44 W/m2
07:18 61.3 °F /  16.3 °C 56.1 °F /  13.4 °C 29.8in /  1009.8hPa Calm     83% 0in /  0.0mm 47 W/m2
07:23 61.9 °F /  16.6 °C 56.7 °F /  13.7 °C 29.8in /  1009.8hPa Calm     83% 0in /  0.0mm 169 W/m2
07:28 62.2 °F /  16.8 °C 57 °F /  13.9 °C 29.8in /  1009.8hPa Calm     83% 0in /  0.0mm 162 W/m2
07:33 63 °F /  17.2 °C 57.4 °F /  14.1 °C 29.8in /  1009.8hPa Calm     82% 0in /  0.0mm 165 W/m2
07:38 63.7 °F /  17.6 °C 57.7 °F /  14.3 °C 29.8in /  1009.8hPa Calm     81% 0in /  0.0mm 206 W/m2
07:43 64.8 °F /  18.2 °C 58.5 °F /  14.7 °C 29.8in /  1009.8hPa Calm     80% 0in /  0.0mm 221 W/m2
07:48 65.5 °F /  18.6 °C 58.5 °F /  14.7 °C 29.8in /  1009.8hPa Calm     78% 0in /  0.0mm 255 W/m2
07:53 66.4 °F /  19.1 °C 59 °F /  15 °C 29.8in /  1009.8hPa Calm     77% 0in /  0.0mm 255 W/m2
07:58 67.3 °F /  19.6 °C 59 °F /  15 °C 29.8in /  1009.8hPa Calm     75% 0in /  0.0mm 260 W/m2
08:03 67.8 °F /  19.9 °C 59.2 °F /  15.1 °C 29.8in /  1009.8hPa Calm   1mph /  1.6km/h 74% 0in /  0.0mm 232 W/m2
08:08 68.4 °F /  20.2 °C 59 °F /  15 °C 29.8in /  1010.2hPa Calm   2mph /  3.2km/h 72% 0in /  0.0mm 185 W/m2
08:13 68.5 °F /  20.3 °C 59.2 °F /  15.1 °C 29.8in /  1010.2hPa NNE 2mph /  3.2km/h 3mph /  4.8km/h 72% 0in /  0.0mm 200 W/m2
08:18 68.4 °F /  20.2 °C 59.4 °F /  15.2 °C 29.8in /  1010.2hPa NNE 0.9mph /  1.4km/h 2mph /  3.2km/h 73% 0in /  0.0mm 167 W/m2
08:23 68.2 °F /  20.1 °C 59.2 °F /  15.1 °C 29.8in /  1010.2hPa Calm     73% 0in /  0.0mm 174 W/m2
08:28 68.2 °F /  20.1 °C 58.5 °F /  14.7 °C 29.8in /  1010.2hPa Calm   2mph /  3.2km/h 71% 0in /  0.0mm 148 W/m2
08:33 68.2 °F /  20.1 °C 58.1 °F /  14.5 °C 29.8in /  1010.2hPa Calm   1mph /  1.6km/h 70% 0in /  0.0mm 141 W/m2
08:38 68.4 °F /  20.2 °C 58.3 °F /  14.6 °C 29.8in /  1010.2hPa NE 0.9mph /  1.4km/h 2mph /  3.2km/h 70% 0in /  0.0mm 125 W/m2
08:43 68.4 °F /  20.2 °C 58.3 °F /  14.6 °C 29.8in /  1010.2hPa Calm     70% 0in /  0.0mm 127 W/m2
08:48 68.5 °F /  20.3 °C 58.8 °F /  14.9 °C 29.8in /  1010.2hPa Calm     71% 0in /  0.0mm 137 W/m2
08:53 68.7 °F /  20.4 °C 58.5 °F /  14.7 °C 29.8in /  1010.2hPa Calm   1mph /  1.6km/h 70% 0in /  0.0mm 146 W/m2
08:58 69.1 °F /  20.6 °C 58.8 °F /  14.9 °C 29.8in /  1010.2hPa Calm     70% 0in /  0.0mm 153 W/m2
09:03 69.4 °F /  20.8 °C 58.8 °F /  14.9 °C 29.8in /  1010.2hPa Calm   2mph /  3.2km/h 69% 0in /  0.0mm 153 W/m2
09:08 70 °F /  21.1 °C 59.4 °F /  15.2 °C 29.8in /  1010.2hPa Calm   2mph /  3.2km/h 69% 0in /  0.0mm 151 W/m2
09:13 70.3 °F /  21.3 °C 59.7 °F /  15.4 °C 29.8in /  1010.2hPa Calm     69% 0in /  0.0mm 142 W/m2
09:18 71.2 °F /  21.8 °C 59.7 °F /  15.4 °C 29.8in /  1010.2hPa NE 0.9mph /  1.4km/h 1mph /  1.6km/h 67% 0in /  0.0mm 132 W/m2
09:23 72 °F /  22.2 °C 59.5 °F /  15.3 °C 29.8in /  1010.2hPa NNE 0.9mph /  1.4km/h 2mph /  3.2km/h 65% 0in /  0.0mm 114 W/m2
09:28 72.1 °F /  22.3 °C 60.1 °F /  15.6 °C 29.8in /  1010.2hPa Calm   1mph /  1.6km/h 66% 0in /  0.0mm 102 W/m2
09:33 72.3 °F /  22.4 °C 60.3 °F /  15.7 °C 29.8in /  1010.2hPa West 0.9mph /  1.4km/h 3mph /  4.8km/h 66% 0in /  0.0mm 97 W/m2
09:38 72.7 °F /  22.6 °C 60.6 °F /  15.9 °C 29.8in /  1010.2hPa Calm     66% 0in /  0.0mm 95 W/m2
09:43 73.4 °F /  23 °C 61 °F /  16.1 °C 29.8in /  1010.2hPa SW 0.9mph /  1.4km/h 2mph /  3.2km/h 65% 0in /  0.0mm 93 W/m2
09:48 73.9 °F /  23.3 °C 61.9 °F /  16.6 °C 29.8in /  1009.8hPa East 2mph /  3.2km/h 2mph /  3.2km/h 66% 0in /  0.0mm 95 W/m2
09:53 74.5 °F /  23.6 °C 61.9 °F /  16.6 °C 29.8in /  1009.8hPa NNW 2mph /  3.2km/h 2mph /  3.2km/h 65% 0in /  0.0mm 155 W/m2
09:58 74.8 °F /  23.8 °C 61.9 °F /  16.6 °C 29.8in /  1009.8hPa WSW 0.9mph /  1.4km/h 2mph /  3.2km/h 64% 0in /  0.0mm 353 W/m2
10:03 75 °F /  23.9 °C 61.2 °F /  16.2 °C 29.8in /  1009.8hPa Calm   2mph /  3.2km/h 62% 0in /  0.0mm 563 W/m2
10:08 75.4 °F /  24.1 °C 61.5 °F /  16.4 °C 29.8in /  1009.8hPa North 2.9mph /  4.7km/h 4mph /  6.4km/h 62% 0in /  0.0mm 575 W/m2
10:13 75.4 °F /  24.1 °C 61 °F /  16.1 °C 29.8in /  1009.8hPa North 0.9mph /  1.4km/h 3mph /  4.8km/h 61% 0in /  0.0mm 499 W/m2
10:18 75.2 °F /  24 °C 60.8 °F /  16 °C 29.8in /  1009.8hPa NW 2.9mph /  4.7km/h 7mph /  11.3km/h 61% 0in /  0.0mm 90 W/m2
10:23 75.2 °F /  24 °C 61.3 °F /  16.3 °C 29.8in /  1009.8hPa WNW 2mph /  3.2km/h 7mph /  11.3km/h 62% 0in /  0.0mm 612 W/m2
10:28 75.4 °F /  24.1 °C 61.9 °F /  16.6 °C 29.8in /  1009.8hPa WNW 4.9mph /  7.9km/h 5mph /  8km/h 63% 0in /  0.0mm 603 W/m2
10:33 75.6 °F /  24.2 °C 61.7 °F /  16.5 °C 29.8in /  1009.5hPa WSW 4mph /  6.4km/h 7mph /  11.3km/h 62% 0in /  0.0mm 643 W/m2
10:38 75.6 °F /  24.2 °C 61.7 °F /  16.5 °C 29.8in /  1009.5hPa NNW 0.9mph /  1.4km/h 4mph /  6.4km/h 62% 0in /  0.0mm 652 W/m2
10:43 76.1 °F /  24.5 °C 61.7 °F /  16.5 °C 29.8in /  1009.5hPa WNW 2.9mph /  4.7km/h 7mph /  11.3km/h 61% 0in /  0.0mm 661 W/m2
10:48 76.3 °F /  24.6 °C 61.3 °F /  16.3 °C 29.8in /  1009.5hPa West 4mph /  6.4km/h 8mph /  12.9km/h 60% 0in /  0.0mm 671 W/m2
10:53 76.5 °F /  24.7 °C 61.5 °F /  16.4 °C 29.8in /  1009.5hPa WNW 2.9mph /  4.7km/h 4mph /  6.4km/h 60% 0in /  0.0mm 696 W/m2
10:58 76.6 °F /  24.8 °C 61.2 °F /  16.2 °C 29.8in /  1009.5hPa WNW 4mph /  6.4km/h 8mph /  12.9km/h 59% 0in /  0.0mm 728 W/m2
11:03 76.8 °F /  24.9 °C 61.3 °F /  16.3 °C 29.8in /  1009.5hPa West 2.9mph /  4.7km/h 4mph /  6.4km/h 59% 0in /  0.0mm 708 W/m2
11:08 76.8 °F /  24.9 °C 61 °F /  16.1 °C 29.8in /  1009.5hPa ENE 0.9mph /  1.4km/h 2mph /  3.2km/h 58% 0in /  0.0mm 708 W/m2
11:13 77.2 °F /  25.1 °C 60.3 °F /  15.7 °C 29.8in /  1009.1hPa WNW 0.9mph /  1.4km/h 7mph /  11.3km/h 56% 0in /  0.0mm 740 W/m2
11:18 77.4 °F /  25.2 °C 60.4 °F /  15.8 °C 29.8in /  1009.1hPa West 2mph /  3.2km/h 6mph /  9.7km/h 56% 0in /  0.0mm 780 W/m2
11:23 77.4 °F /  25.2 °C 60.4 °F /  15.8 °C 29.8in /  1009.1hPa NNW 2mph /  3.2km/h 7mph /  11.3km/h 56% 0in /  0.0mm 780 W/m2
11:28 77.7 °F /  25.4 °C 60.8 °F /  16 °C 29.8in /  1009.1hPa WNW 4mph /  6.4km/h 5mph /  8km/h 56% 0in /  0.0mm 527 W/m2
11:33 78.1 °F /  25.6 °C 61.2 °F /  16.2 °C 29.8in /  1009.1hPa West 2mph /  3.2km/h 4mph /  6.4km/h 56% 0in /  0.0mm 487 W/m2
11:38 77.7 °F /  25.4 °C 60.8 °F /  16 °C 29.8in /  1009.1hPa West 2.9mph /  4.7km/h 4mph /  6.4km/h 56% 0in /  0.0mm 475 W/m2
11:43 77.7 °F /  25.4 °C 60.8 °F /  16 °C 29.8in /  1009.1hPa WNW 4mph /  6.4km/h 7mph /  11.3km/h 56% 0in /  0.0mm 446 W/m2
11:48 77.7 °F /  25.4 °C 60.8 °F /  16 °C 29.8in /  1009.1hPa SW 2.9mph /  4.7km/h 4mph /  6.4km/h 56% 0in /  0.0mm 473 W/m2
11:53 77.7 °F /  25.4 °C 61.3 °F /  16.3 °C 29.8in /  1009.1hPa WNW 4mph /  6.4km/h 8mph /  12.9km/h 57% 0in /  0.0mm 466 W/m2
11:58 77.5 °F /  25.3 °C 61.2 °F /  16.2 °C 29.8in /  1009.1hPa WNW 6mph /  9.7km/h 6mph /  9.7km/h 57% 0in /  0.0mm 909 W/m2
12:03 78.3 °F /  25.7 °C 61.7 °F /  16.5 °C 29.8in /  1009.1hPa West 2mph /  3.2km/h 8mph /  12.9km/h 57% 0in /  0.0mm 1048 W/m2
12:08 78.6 °F /  25.9 °C 60.6 °F /  15.9 °C 29.8in /  1009.1hPa NNW 2mph /  3.2km/h 5mph /  8km/h 54% 0in /  0.0mm 652 W/m2
12:13 78.8 °F /  26 °C 61.3 °F /  16.3 °C 29.8in /  1009.1hPa NNW 2.9mph /  4.7km/h 8mph /  12.9km/h 55% 0in /  0.0mm 392 W/m2
12:18 78.8 °F /  26 °C 61.3 °F /  16.3 °C 29.8in /  1009.1hPa NW 0.9mph /  1.4km/h 4mph /  6.4km/h 55% 0in /  0.0mm 622 W/m2
12:23 78.8 °F /  26 °C 61.3 °F /  16.3 °C 29.8in /  1009.1hPa North 4mph /  6.4km/h 4mph /  6.4km/h 55% 0in /  0.0mm 411 W/m2
12:28 78.8 °F /  26 °C 61.3 °F /  16.3 °C 29.8in /  1009.1hPa WNW 2.9mph /  4.7km/h 6mph /  9.7km/h 55% 0in /  0.0mm 483 W/m2
12:33 78.6 °F /  25.9 °C 61.2 °F /  16.2 °C 29.8in /  1009.1hPa West 2.9mph /  4.7km/h 7mph /  11.3km/h 55% 0in /  0.0mm 503 W/m2
12:38 79.2 °F /  26.2 °C 62.1 °F /  16.7 °C 29.8in /  1008.8hPa WNW 2mph /  3.2km/h 5mph /  8km/h 56% 0in /  0.0mm 1123 W/m2
12:43 79.5 °F /  26.4 °C 61.9 °F /  16.6 °C 29.8in /  1008.8hPa West 2.9mph /  4.7km/h 7mph /  11.3km/h 55% 0in /  0.0mm 476 W/m2
12:48 79.7 °F /  26.5 °C 61.5 °F /  16.4 °C 29.8in /  1008.8hPa WNW 2mph /  3.2km/h 4mph /  6.4km/h 54% 0in /  0.0mm 485 W/m2
12:53 79.3 °F /  26.3 °C 61.7 °F /  16.5 °C 29.8in /  1008.8hPa WNW 0.9mph /  1.4km/h 5mph /  8km/h 55% 0in /  0.0mm 364 W/m2
12:58 79.2 °F /  26.2 °C 61.5 °F /  16.4 °C 29.8in /  1008.8hPa Calm   6mph /  9.7km/h 55% 0in /  0.0mm 487 W/m2
13:03 79.2 °F /  26.2 °C 61.2 °F /  16.2 °C 29.8in /  1008.8hPa WNW 0.9mph /  1.4km/h 5mph /  8km/h 54% 0in /  0.0mm 457 W/m2
13:08 79.3 °F /  26.3 °C 61.7 °F /  16.5 °C 29.8in /  1008.8hPa WNW 0.9mph /  1.4km/h 1mph /  1.6km/h 55% 0in /  0.0mm 689 W/m2
13:13 79.5 °F /  26.4 °C 61.3 °F /  16.3 °C 29.8in /  1008.5hPa NNW 0.9mph /  1.4km/h 3mph /  4.8km/h 54% 0in /  0.0mm 1099 W/m2
13:18 80.2 °F /  26.8 °C 62.1 °F /  16.7 °C 29.8in /  1008.5hPa Calm   3mph /  4.8km/h 54% 0in /  0.0mm 628 W/m2
13:23 80.6 °F /  27 °C 60.8 °F /  16 °C 29.8in /  1008.5hPa NW 0.9mph /  1.4km/h 3mph /  4.8km/h 51% 0in /  0.0mm 575 W/m2
13:28 81 °F /  27.2 °C 60.1 °F /  15.6 °C 29.8in /  1008.5hPa South 0.9mph /  1.4km/h 4mph /  6.4km/h 49% 0in /  0.0mm 900 W/m2
13:33 81.3 °F /  27.4 °C 60.3 °F /  15.7 °C 29.8in /  1008.5hPa East 6mph /  9.7km/h 6mph /  9.7km/h 49% 0in /  0.0mm 889 W/m2
13:38 81.7 °F /  27.6 °C 60.6 °F /  15.9 °C 29.8in /  1008.5hPa NNW 0.9mph /  1.4km/h 2mph /  3.2km/h 49% 0in /  0.0mm 902 W/m2
13:43 82 °F /  27.8 °C 61.5 °F /  16.4 °C 29.8in /  1008.5hPa NNW 0.9mph /  1.4km/h 3mph /  4.8km/h 50% 0in /  0.0mm 807 W/m2
13:48 82.4 °F /  28 °C 60.8 °F /  16 °C 29.8in /  1008.1hPa ENE 0.9mph /  1.4km/h 2mph /  3.2km/h 48% 0in /  0.0mm 353 W/m2
13:53 82.6 °F /  28.1 °C 62.1 °F /  16.7 °C 29.8in /  1008.1hPa WSW 2mph /  3.2km/h 3mph /  4.8km/h 50% 0in /  0.0mm 387 W/m2
13:58 82.8 °F /  28.2 °C 60.4 °F /  15.8 °C 29.8in /  1008.1hPa West 0.9mph /  1.4km/h 2mph /  3.2km/h 47% 0in /  0.0mm 385 W/m2
14:03 82.6 °F /  28.1 °C 61 °F /  16.1 °C 29.8in /  1008.1hPa SSW 0.9mph /  1.4km/h 2mph /  3.2km/h 48% 0in /  0.0mm 343 W/m2
14:08 82.4 °F /  28 °C 60.1 °F /  15.6 °C 29.8in /  1008.1hPa Calm   3mph /  4.8km/h 47% 0in /  0.0mm 332 W/m2
14:13 82.2 °F /  27.9 °C 59.9 °F /  15.5 °C 29.8in /  1008.1hPa West 0.9mph /  1.4km/h 4mph /  6.4km/h 47% 0in /  0.0mm 352 W/m2
14:18 82.2 °F /  27.9 °C 61.2 °F /  16.2 °C 29.8in /  1008.1hPa Calm     49% 0in /  0.0mm 385 W/m2
14:23 82.6 °F /  28.1 °C 60.3 °F /  15.7 °C 29.8in /  1008.1hPa East 2.9mph /  4.7km/h 7mph /  11.3km/h 47% 0in /  0.0mm 385 W/m2
14:28 82.4 °F /  28 °C 61.3 °F /  16.3 °C 29.8in /  1008.1hPa Calm   7mph /  11.3km/h 49% 0in /  0.0mm 334 W/m2
14:33 82.2 °F /  27.9 °C 61.2 °F /  16.2 °C 29.8in /  1008.1hPa Calm   2mph /  3.2km/h 49% 0in /  0.0mm 336 W/m2
14:39 82.2 °F /  27.9 °C 62.8 °F /  17.1 °C 29.8in /  1007.8hPa ESE 0.9mph /  1.4km/h 7mph /  11.3km/h 52% 0in /  0.0mm 338 W/m2
14:44 82.2 °F /  27.9 °C 62.8 °F /  17.1 °C 29.8in /  1008.1hPa WNW 11mph /  17.7km/h 13mph /  20.9km/h 52% 0in /  0.0mm 394 W/m2
14:49 80.4 °F /  26.9 °C 63.9 °F /  17.7 °C 29.8in /  1008.1hPa NW 13mph /  20.9km/h 14mph /  22.5km/h 57% 0in /  0.0mm 436 W/m2
14:54 79 °F /  26.1 °C 63.9 °F /  17.7 °C 29.8in /  1008.1hPa WNW 2.9mph /  4.7km/h 11mph /  17.7km/h 60% 0in /  0.0mm 601 W/m2
14:59 78.6 °F /  25.9 °C 64 °F /  17.8 °C 29.8in /  1008.1hPa WNW 4mph /  6.4km/h 14mph /  22.5km/h 61% 0in /  0.0mm 520 W/m2
15:04 78.4 °F /  25.8 °C 63.3 °F /  17.4 °C 29.8in /  1008.1hPa West 8.9mph /  14.3km/h 14mph /  22.5km/h 60% 0in /  0.0mm 548 W/m2
15:09 78.1 °F /  25.6 °C 63.5 °F /  17.5 °C 29.8in /  1008.1hPa WSW 6mph /  9.7km/h 11mph /  17.7km/h 61% 0in /  0.0mm 418 W/m2
15:14 77.5 °F /  25.3 °C 63.9 °F /  17.7 °C 29.8in /  1008.1hPa SSW 6mph /  9.7km/h 14mph /  22.5km/h 63% 0in /  0.0mm 399 W/m2
15:19 77 °F /  25 °C 63.5 °F /  17.5 °C 29.8in /  1008.1hPa West 2.9mph /  4.7km/h 7mph /  11.3km/h 63% 0in /  0.0mm 461 W/m2
15:24 76.5 °F /  24.7 °C 63.3 °F /  17.4 °C 29.8in /  1008.5hPa WSW 8.1mph /  13km/h 13mph /  20.9km/h 64% 0in /  0.0mm 422 W/m2
15:29 75.7 °F /  24.3 °C 63.1 °F /  17.3 °C 29.8in /  1008.1hPa West 8.9mph /  14.3km/h 13mph /  20.9km/h 65% 0in /  0.0mm 436 W/m2
15:34 75.9 °F /  24.4 °C 63.7 °F /  17.6 °C 29.8in /  1008.5hPa WNW 10.1mph /  16.3km/h 14mph /  22.5km/h 66% 0in /  0.0mm 313 W/m2
15:39 75.4 °F /  24.1 °C 62.8 °F /  17.1 °C 29.8in /  1008.5hPa WNW 12.1mph /  19.5km/h 17mph /  27.4km/h 65% 0in /  0.0mm 350 W/m2
15:44 74.8 °F /  23.8 °C 62.8 °F /  17.1 °C 29.8in /  1008.5hPa WNW 8.9mph /  14.3km/h 19mph /  30.6km/h 66% 0in /  0.0mm 605 W/m2
15:49 74.7 °F /  23.7 °C 63 °F /  17.2 °C 29.8in /  1008.8hPa West 6.9mph /  11.1km/h 15mph /  24.1km/h 67% 0in /  0.0mm 302 W/m2
15:54 74.5 °F /  23.6 °C 63.1 °F /  17.3 °C 29.8in /  1008.8hPa West 6mph /  9.7km/h 12mph /  19.3km/h 68% 0in /  0.0mm 427 W/m2
15:59 73.9 °F /  23.3 °C 63.1 °F /  17.3 °C 29.8in /  1008.8hPa WNW 8.1mph /  13km/h 16mph /  25.7km/h 69% 0in /  0.0mm 791 W/m2
16:04 74.1 °F /  23.4 °C 63 °F /  17.2 °C 29.8in /  1008.8hPa WSW 10.1mph /  16.3km/h 18mph /  29km/h 68% 0in /  0.0mm 751 W/m2
16:09 73.8 °F /  23.2 °C 63 °F /  17.2 °C 29.8in /  1008.8hPa West 8.1mph /  13km/h 17mph /  27.4km/h 69% 0in /  0.0mm 352 W/m2
16:14 73.6 °F /  23.1 °C 62.8 °F /  17.1 °C 29.8in /  1008.8hPa West 11mph /  17.7km/h 14mph /  22.5km/h 69% 0in /  0.0mm 301 W/m2
16:19 73.4 °F /  23 °C 62.2 °F /  16.8 °C 29.8in /  1008.8hPa West 8.9mph /  14.3km/h 16mph /  25.7km/h 68% 0in /  0.0mm 735 W/m2
16:24 72.7 °F /  22.6 °C 62.2 °F /  16.8 °C 29.8in /  1009.1hPa WNW 10.1mph /  16.3km/h 19mph /  30.6km/h 70% 0in /  0.0mm 345 W/m2
16:29 70.9 °F /  21.6 °C 61.3 °F /  16.3 °C 29.8in /  1009.1hPa NW 14.1mph /  22.7km/h 17mph /  27.4km/h 72% 0in /  0.0mm 288 W/m2
16:34 69.3 °F /  20.7 °C 60.6 °F /  15.9 °C 29.8in /  1009.1hPa WSW 6.9mph /  11.1km/h 27mph /  43.5km/h 74% 0in /  0.0mm 271 W/m2
16:39 68.2 °F /  20.1 °C 60.3 °F /  15.7 °C 29.8in /  1009.1hPa West 10.1mph /  16.3km/h 22mph /  35.4km/h 76% 0in /  0.0mm 417 W/m2
16:44 67.6 °F /  19.8 °C 59.7 °F /  15.4 °C 29.8in /  1009.1hPa WNW 15mph /  24.1km/h 26mph /  41.8km/h 76% 0in /  0.0mm 279 W/m2
16:49 66.7 °F /  19.3 °C 59 °F /  15 °C 29.8in /  1009.5hPa North 16.1mph /  25.9km/h 20mph /  32.2km/h 76% 0in /  0.0mm 163 W/m2
16:54 65.8 °F /  18.8 °C 58.5 °F /  14.7 °C 29.8in /  1009.8hPa West 15mph /  24.1km/h 15mph /  24.1km/h 77% 0in /  0.0mm 132 W/m2
16:59 64 °F /  17.8 °C 57 °F /  13.9 °C 29.8in /  1009.8hPa WNW 12.1mph /  19.5km/h 29mph /  46.7km/h 78% 0in /  0.0mm 118 W/m2
17:04 63 °F /  17.2 °C 56.3 °F /  13.5 °C 29.8in /  1009.8hPa West 12.1mph /  19.5km/h 23mph /  37km/h 79% 0in /  0.0mm 139 W/m2
17:09 61.9 °F /  16.6 °C 55.6 °F /  13.1 °C 29.8in /  1009.8hPa West 8.9mph /  14.3km/h 28mph /  45.1km/h 80% 0in /  0.0mm 139 W/m2
17:14 61 °F /  16.1 °C 55.4 °F /  13 °C 29.8in /  1010.2hPa West 13mph /  20.9km/h 23mph /  37km/h 82% 0in /  0.0mm 169 W/m2
17:19 60.8 °F /  16 °C 55.2 °F /  12.9 °C 29.8in /  1010.2hPa West 6.9mph /  11.1km/h 21mph /  33.8km/h 82% 0in /  0.0mm 262 W/m2
17:24 61 °F /  16.1 °C 55.8 °F /  13.2 °C 29.8in /  1010.2hPa WNW 8.9mph /  14.3km/h 19mph /  30.6km/h 83% 0in /  0.0mm 274 W/m2
17:29 61 °F /  16.1 °C 55.4 °F /  13 °C 29.8in /  1010.2hPa West 8.1mph /  13km/h 18mph /  29km/h 82% 0in /  0.0mm 234 W/m2
17:34 61 °F /  16.1 °C 55.4 °F /  13 °C 29.8in /  1010.2hPa WSW 15mph /  24.1km/h 22mph /  35.4km/h 82% 0in /  0.0mm 221 W/m2
17:39 61 °F /  16.1 °C 55.4 °F /  13 °C 29.8in /  1010.5hPa NW 21mph /  33.8km/h 24mph /  38.6km/h 82% 0in /  0.0mm 188 W/m2
17:44 60.8 °F /  16 °C 55.2 °F /  12.9 °C 29.9in /  1010.8hPa WNW 8.1mph /  13km/h 19mph /  30.6km/h 82% 0in /  0.0mm 171 W/m2
17:49 61 °F /  16.1 °C 55 °F /  12.8 °C 29.9in /  1010.8hPa WNW 8.9mph /  14.3km/h 24mph /  38.6km/h 81% 0in /  0.0mm 149 W/m2
17:54 61.2 °F /  16.2 °C 55.2 °F /  12.9 °C 29.9in /  1010.8hPa West 10.1mph /  16.3km/h 17mph /  27.4km/h 81% 0in /  0.0mm 130 W/m2
17:59 61.2 °F /  16.2 °C 54.9 °F /  12.7 °C 29.9in /  1011.2hPa WSW 15mph /  24.1km/h 17mph /  27.4km/h 80% 0in /  0.0mm 148 W/m2
18:04 61.3 °F /  16.3 °C 55 °F /  12.8 °C 29.9in /  1011.2hPa West 8.1mph /  13km/h 15mph /  24.1km/h 80% 0in /  0.0mm 169 W/m2
18:09 61.5 °F /  16.4 °C 55.2 °F /  12.9 °C 29.9in /  1011.5hPa WSW 10.1mph /  16.3km/h 10mph /  16.1km/h 80% 0in /  0.0mm 118 W/m2
18:14 61.7 °F /  16.5 °C 55 °F /  12.8 °C 29.9in /  1011.9hPa NW 4.9mph /  7.9km/h 12mph /  19.3km/h 79% 0in /  0.0mm 130 W/m2
18:19 62.2 °F /  16.8 °C 55.2 °F /  12.9 °C 29.9in /  1011.9hPa NW 2.9mph /  4.7km/h 9mph /  14.5km/h 78% 0in /  0.0mm 127 W/m2
18:24 62.4 °F /  16.9 °C 55 °F /  12.8 °C 29.9in /  1012.2hPa West 12.1mph /  19.5km/h 19mph /  30.6km/h 77% 0in /  0.0mm 120 W/m2
18:29 62.4 °F /  16.9 °C 54 °F /  12.2 °C 29.9in /  1011.9hPa NW 11mph /  17.7km/h 17mph /  27.4km/h 74% 0in /  0.0mm 109 W/m2
18:34 62.4 °F /  16.9 °C 53.6 °F /  12 °C 29.9in /  1011.9hPa WSW 8.9mph /  14.3km/h 19mph /  30.6km/h 73% 0in /  0.0mm 190 W/m2
18:39 62.4 °F /  16.9 °C 53.6 °F /  12 °C 29.9in /  1011.5hPa West 2.9mph /  4.7km/h 8mph /  12.9km/h 73% 0in /  0.0mm 174 W/m2
18:44 62.8 °F /  17.1 °C 54 °F /  12.2 °C 29.9in /  1011.9hPa NNW 4.9mph /  7.9km/h 11mph /  17.7km/h 73% 0in /  0.0mm 311 W/m2
18:49 63.1 °F /  17.3 °C 54 °F /  12.2 °C 29.9in /  1011.9hPa WSW 6.9mph /  11.1km/h 12mph /  19.3km/h 72% 0in /  0.0mm 155 W/m2
18:54 63 °F /  17.2 °C 53.8 °F /  12.1 °C 29.9in /  1011.9hPa West 6.9mph /  11.1km/h 11mph /  17.7km/h 72% 0in /  0.0mm 135 W/m2
18:59 63 °F /  17.2 °C 53.8 °F /  12.1 °C 29.9in /  1012.2hPa WSW 12.1mph /  19.5km/h 14mph /  22.5km/h 72% 0in /  0.0mm 171 W/m2
19:04 62.6 °F /  17 °C 53.8 °F /  12.1 °C 29.9in /  1012.2hPa WNW 10.1mph /  16.3km/h 10mph /  16.1km/h 73% 0in /  0.0mm 114 W/m2
19:09 62.4 °F /  16.9 °C 53.6 °F /  12 °C 29.9in /  1012.2hPa WSW 8.9mph /  14.3km/h 14mph /  22.5km/h 73% 0in /  0.0mm 100 W/m2
19:14 62.2 °F /  16.8 °C 53.1 °F /  11.7 °C 29.9in /  1012.2hPa WNW 11mph /  17.7km/h 14mph /  22.5km/h 72% 0in /  0.0mm 72 W/m2
19:19 61.9 °F /  16.6 °C 53.1 °F /  11.7 °C 29.9in /  1012.5hPa WSW 4.9mph /  7.9km/h 10mph /  16.1km/h 73% 0in /  0.0mm 40 W/m2
19:24 61.7 °F /  16.5 °C 53.2 °F /  11.8 °C 29.9in /  1013.2hPa WSW 10.1mph /  16.3km/h 14mph /  22.5km/h 74% 0in /  0.0mm 16 W/m2
19:29 61.3 °F /  16.3 °C 53.4 °F /  11.9 °C 29.9in /  1012.2hPa North 2mph /  3.2km/h 10mph /  16.1km/h 75% 0in /  0.0mm 28 W/m2
19:34 60.8 °F /  16 °C 54 °F /  12.2 °C 29.9in /  1012.2hPa WSW 2.9mph /  4.7km/h 10mph /  16.1km/h 78% 0in /  0.0mm 65 W/m2
19:39 60.1 °F /  15.6 °C 54.5 °F /  12.5 °C 29.9in /  1012.2hPa West 6mph /  9.7km/h 7mph /  11.3km/h 82% 0.01in /  0.2mm 54 W/m2
19:44 59.4 °F /  15.2 °C 54.1 °F /  12.3 °C 29.9in /  1012.2hPa West 2.9mph /  4.7km/h 6mph /  9.7km/h 83% 0.01in /  0.2mm 25 W/m2
19:49 59 °F /  15 °C 54.1 °F /  12.3 °C 29.9in /  1012.5hPa West 2mph /  3.2km/h 4mph /  6.4km/h 84% 0.01in /  0.2mm 18 W/m2
19:54 58.6 °F /  14.8 °C 54.1 °F /  12.3 °C 29.9in /  1012.2hPa NW 2.9mph /  4.7km/h 7mph /  11.3km/h 85% 0.02in /  0.5mm 28 W/m2
19:59 58.5 °F /  14.7 °C 54.3 °F /  12.4 °C 29.9in /  1011.9hPa WNW 2mph /  3.2km/h 3mph /  4.8km/h 86% 0.04in /  1.0mm 37 W/m2
20:04 58.3 °F /  14.6 °C 54.5 °F /  12.5 °C 29.9in /  1011.9hPa West 2mph /  3.2km/h 4mph /  6.4km/h 87% 0.04in /  1.0mm 67 W/m2
20:09 58.1 °F /  14.5 °C 54.3 °F /  12.4 °C 29.9in /  1012.2hPa West 2.9mph /  4.7km/h 4mph /  6.4km/h 87% 0.04in /  1.0mm 63 W/m2
20:14 57.9 °F /  14.4 °C 54.1 °F /  12.3 °C 29.9in /  1012.9hPa WSW 4.9mph /  7.9km/h 6mph /  9.7km/h 87% 0.04in /  1.0mm 47 W/m2
20:19 57.9 °F /  14.4 °C 53.8 °F /  12.1 °C 29.9in /  1012.9hPa West 2mph /  3.2km/h 5mph /  8km/h 86% 0.04in /  1.0mm 30 W/m2
20:24 58.1 °F /  14.5 °C 54.3 °F /  12.4 °C 29.9in /  1012.9hPa WSW 2mph /  3.2km/h 3mph /  4.8km/h 87% 0.04in /  1.0mm 28 W/m2
20:29 58.1 °F /  14.5 °C 54.5 °F /  12.5 °C 29.9in /  1012.9hPa WNW 0.9mph /  1.4km/h 3mph /  4.8km/h 88% 0.04in /  1.0mm 25 W/m2
20:34 57.9 °F /  14.4 °C 54.3 °F /  12.4 °C 29.9in /  1012.9hPa WSW 4mph /  6.4km/h 6mph /  9.7km/h 88% 0.04in /  1.0mm 25 W/m2
20:39 57.9 °F /  14.4 °C 54.3 °F /  12.4 °C 29.9in /  1013.2hPa WSW 2mph /  3.2km/h 3mph /  4.8km/h 88% 0.03in /  0.8mm 16 W/m2
20:44 57.7 °F /  14.3 °C 54 °F /  12.2 °C 29.9in /  1013.2hPa West 4mph /  6.4km/h 7mph /  11.3km/h 87% 0.03in /  0.8mm 12 W/m2
20:49 57.7 °F /  14.3 °C 54 °F /  12.2 °C 29.9in /  1013.2hPa WSW 2mph /  3.2km/h 5mph /  8km/h 87% 0.03in /  0.8mm 12 W/m2
20:54 57.6 °F /  14.2 °C 53.8 °F /  12.1 °C 29.9in /  1013.2hPa WSW 4.9mph /  7.9km/h 5mph /  8km/h 87% 0.02in /  0.5mm 12 W/m2
20:59 57.4 °F /  14.1 °C 53.6 °F /  12 °C 29.9in /  1013.5hPa WNW 2.9mph /  4.7km/h 7mph /  11.3km/h 87% 0.01in /  0.2mm 11 W/m2
21:04 57.2 °F /  14 °C 53.6 °F /  12 °C 29.9in /  1013.5hPa WSW 2.9mph /  4.7km/h 3mph /  4.8km/h 88% 0.01in /  0.2mm 7 W/m2
21:09 57 °F /  13.9 °C 53.4 °F /  11.9 °C 29.9in /  1013.5hPa WSW 6.9mph /  11.1km/h 7mph /  11.3km/h 88% 0.01in /  0.2mm 7 W/m2
21:14 56.8 °F /  13.8 °C 53.2 °F /  11.8 °C 29.9in /  1013.5hPa West 2mph /  3.2km/h 4mph /  6.4km/h 88% 0.02in /  0.5mm 9 W/m2
21:19 56.7 °F /  13.7 °C 53.4 °F /  11.9 °C 29.9in /  1013.5hPa West 0.9mph /  1.4km/h 7mph /  11.3km/h 89% 0.02in /  0.5mm 7 W/m2
21:24 56.7 °F /  13.7 °C 53.4 °F /  11.9 °C 29.9in /  1013.5hPa West 6mph /  9.7km/h 6mph /  9.7km/h 89% 0.02in /  0.5mm 5 W/m2
21:29 56.5 °F /  13.6 °C 53.6 °F /  12 °C 29.9in /  1013.5hPa WSW 4mph /  6.4km/h 6mph /  9.7km/h 90% 0.02in /  0.5mm 0 W/m2
21:34 56.5 °F /  13.6 °C 53.6 °F /  12 °C 29.9in /  1013.9hPa West 4mph /  6.4km/h 7mph /  11.3km/h 90% 0.02in /  0.5mm 0 W/m2
21:39 56.3 °F /  13.5 °C 53.4 °F /  11.9 °C 30in /  1014.2hPa WSW 2.9mph /  4.7km/h 7mph /  11.3km/h 90% 0.02in /  0.5mm 0 W/m2
21:44 56.1 °F /  13.4 °C 53.2 °F /  11.8 °C 30in /  1014.2hPa NW 2.9mph /  4.7km/h 6mph /  9.7km/h 90% 0.02in /  0.5mm 0 W/m2
21:49 56.1 °F /  13.4 °C 53.6 °F /  12 °C 30in /  1014.6hPa West 2mph /  3.2km/h 3mph /  4.8km/h 91% 0.02in /  0.5mm 0 W/m2
21:54 56.1 °F /  13.4 °C 53.6 °F /  12 °C 30in /  1014.6hPa West 4mph /  6.4km/h 4mph /  6.4km/h 91% 0.02in /  0.5mm 0 W/m2
21:59 56.1 °F /  13.4 °C 53.6 °F /  12 °C 30in /  1014.2hPa WSW 2.9mph /  4.7km/h 8mph /  12.9km/h 91% 0.02in /  0.5mm 0 W/m2
22:04 56.3 °F /  13.5 °C 54 °F /  12.2 °C 30in /  1014.2hPa WNW 2.9mph /  4.7km/h 8mph /  12.9km/h 92% 0.02in /  0.5mm 0 W/m2
22:09 56.3 °F /  13.5 °C 53.8 °F /  12.1 °C 30in /  1014.6hPa West 6mph /  9.7km/h 8mph /  12.9km/h 91% 0.02in /  0.5mm 0 W/m2
22:14 56.1 °F /  13.4 °C 53.6 °F /  12 °C 30in /  1014.6hPa WNW 4.9mph /  7.9km/h 5mph /  8km/h 91% 0.02in /  0.5mm 0 W/m2
22:19 56.1 °F /  13.4 °C 53.8 °F /  12.1 °C 30in /  1014.6hPa West 4mph /  6.4km/h 4mph /  6.4km/h 92% 0.02in /  0.5mm 0 W/m2
22:24 56.1 °F /  13.4 °C 53.8 °F /  12.1 °C 30in /  1014.9hPa WSW 2.9mph /  4.7km/h 4mph /  6.4km/h 92% 0.02in /  0.5mm 0 W/m2
22:29 56.1 °F /  13.4 °C 53.8 °F /  12.1 °C 30in /  1015.2hPa West 2.9mph /  4.7km/h 7mph /  11.3km/h 92% 0.02in /  0.5mm 0 W/m2
22:34 56.1 °F /  13.4 °C 53.8 °F /  12.1 °C 30in /  1015.6hPa West 2.9mph /  4.7km/h 4mph /  6.4km/h 92% 0.02in /  0.5mm 0 W/m2
22:39 56.1 °F /  13.4 °C 53.8 °F /  12.1 °C 30in /  1015.6hPa West 2mph /  3.2km/h 4mph /  6.4km/h 92% 0.02in /  0.5mm 0 W/m2
22:44 56.1 °F /  13.4 °C 53.8 °F /  12.1 °C 30in /  1015.6hPa Calm   4mph /  6.4km/h 92% 0.02in /  0.5mm 0 W/m2
22:49 56.1 °F /  13.4 °C 53.8 °F /  12.1 °C 30in /  1015.6hPa NW 0.9mph /  1.4km/h 4mph /  6.4km/h 92% 0.02in /  0.5mm 0 W/m2
22:54 56.1 °F /  13.4 °C 53.8 °F /  12.1 °C 30in /  1015.2hPa Calm   3mph /  4.8km/h 92% 0.02in /  0.5mm 0 W/m2
22:59 56.1 °F /  13.4 °C 53.8 °F /  12.1 °C 30in /  1015.2hPa WSW 0.9mph /  1.4km/h 3mph /  4.8km/h 92% 0.01in /  0.2mm 0 W/m2
23:04 55.9 °F /  13.3 °C 53.4 °F /  11.9 °C 30in /  1015.6hPa West 2mph /  3.2km/h 7mph /  11.3km/h 91% 0.01in /  0.2mm 0 W/m2
23:10 55.9 °F /  13.3 °C 53.6 °F /  12 °C 30in /  1015.6hPa West 4mph /  6.4km/h 4mph /  6.4km/h 92% 0.01in /  0.2mm 0 W/m2
23:15 55.9 °F /  13.3 °C 53.6 °F /  12 °C 30in /  1015.6hPa West 2mph /  3.2km/h 3mph /  4.8km/h 92% 0.01in /  0.2mm 0 W/m2
23:20 55.9 °F /  13.3 °C 53.6 °F /  12 °C 30in /  1015.6hPa WSW 2mph /  3.2km/h 3mph /  4.8km/h 92% 0in /  0.0mm 0 W/m2
23:25 55.9 °F /  13.3 °C 53.6 °F /  12 °C 30in /  1015.9hPa SW 2mph /  3.2km/h 2mph /  3.2km/h 92% 0in /  0.0mm 0 W/m2
23:30 55.9 °F /  13.3 °C 53.6 °F /  12 °C 30in /  1015.6hPa SW 0.9mph /  1.4km/h 1mph /  1.6km/h 92% 0in /  0.0mm 0 W/m2
23:35 55.9 °F /  13.3 °C 53.6 °F /  12 °C 30in /  1015.6hPa WNW 0.9mph /  1.4km/h 4mph /  6.4km/h 92% 0in /  0.0mm 0 W/m2
23:40 55.8 °F /  13.2 °C 53.4 °F /  11.9 °C 30in /  1015.6hPa WNW 0.9mph /  1.4km/h 2mph /  3.2km/h 92% 0in /  0.0mm 0 W/m2
23:45 55.8 °F /  13.2 °C 53.4 °F /  11.9 °C 30in /  1015.6hPa West 2mph /  3.2km/h 3mph /  4.8km/h 92% 0in /  0.0mm 0 W/m2
23:50 55.8 °F /  13.2 °C 53.4 °F /  11.9 °C 30in /  1015.6hPa West 0.9mph /  1.4km/h 2mph /  3.2km/h 92% 0in /  0.0mm 0 W/m2
23:55 55.8 °F /  13.2 °C 53.4 °F /  11.9 °C 30in /  1015.6hPa WNW 0.9mph /  1.4km/h 2mph /  3.2km/h 92% 0in /  0.0mm 0 W/m2
Juneau County Weather
Compliments of Weather Underground - 4 mb